createdAt,value
2018-02-22T00:07:47.477Z,0
2018-02-22T00:39:09.321Z,0
2018-02-22T02:02:05.889Z,0
2018-02-22T02:50:09.631Z,0
2018-02-22T03:07:17.994Z,0
2018-02-22T03:08:06.899Z,0
2018-02-22T03:08:56.478Z,0
2018-02-22T03:25:15.263Z,0
2018-02-22T03:41:57.946Z,0
2018-02-22T03:42:51.842Z,0
2018-02-22T05:18:47.799Z,0
2018-02-22T05:19:40.680Z,0
2018-02-22T05:20:32.748Z,0
2018-02-22T05:21:25.238Z,0
2018-02-22T05:22:18.735Z,0
2018-02-22T05:23:11.451Z,0
2018-02-22T05:24:03.952Z,0
2018-02-22T05:24:56.815Z,0
2018-02-22T05:25:49.562Z,0
2018-02-22T05:26:41.890Z,0
2018-02-22T05:27:34.495Z,0
2018-02-22T05:28:26.933Z,0
2018-02-22T05:29:20.318Z,0
2018-02-22T05:30:12.832Z,0
2018-02-22T05:31:05.298Z,0
2018-02-22T05:31:58.177Z,0
2018-02-22T05:32:51.405Z,0
2018-02-22T05:33:43.745Z,0
2018-02-22T05:34:37.861Z,0
2018-02-22T05:35:30.446Z,0
2018-02-22T05:36:22.849Z,0
2018-02-22T05:37:14.834Z,0
2018-02-22T05:38:07.181Z,0
2018-02-22T05:38:59.224Z,0
2018-02-22T05:39:51.968Z,0
2018-02-22T05:40:44.244Z,0
2018-02-22T05:41:36.717Z,0
2018-02-22T05:42:30.205Z,0
2018-02-22T05:43:22.341Z,0
2018-02-22T05:44:14.872Z,0
2018-02-22T05:45:07.491Z,0
2018-02-22T05:45:59.707Z,0
2018-02-22T05:46:52.865Z,0
2018-02-22T05:47:45.381Z,0
2018-02-22T05:48:37.775Z,0
2018-02-22T05:49:30.302Z,0
2018-02-22T05:50:22.602Z,0
2018-02-22T05:51:18.121Z,0
2018-02-22T05:52:10.217Z,0
2018-02-22T05:53:03.052Z,0
2018-02-22T05:53:55.841Z,0
2018-02-22T05:54:48.649Z,0
2018-02-22T05:55:42.359Z,0
2018-02-22T05:56:34.880Z,0
2018-02-22T05:57:27.161Z,0
2018-02-22T05:58:19.373Z,0
2018-02-22T05:59:11.491Z,4
2018-02-22T06:00:04.393Z,0
2018-02-22T06:00:56.112Z,0
2018-02-22T06:01:50.153Z,0
2018-02-22T06:02:42.381Z,4
2018-02-22T06:03:34.633Z,0
2018-02-22T06:04:26.696Z,4
2018-02-22T06:05:20.635Z,4
2018-02-22T06:06:13.269Z,0
2018-02-22T06:07:05.615Z,4
2018-02-22T06:07:57.697Z,4
2018-02-22T06:08:49.541Z,4
2018-02-22T06:09:34.292Z,4
2018-02-22T06:10:14.593Z,4
2018-02-22T06:10:54.992Z,4
2018-02-22T06:11:35.546Z,8
2018-02-22T06:12:16.063Z,8
2018-02-22T06:12:56.622Z,8
2018-02-22T06:13:36.842Z,12
2018-02-22T06:14:17.323Z,12
2018-02-22T06:14:57.712Z,16
2018-02-22T06:15:38.062Z,12
2018-02-22T06:16:18.476Z,16
2018-02-22T06:16:58.992Z,20
2018-02-22T06:17:40.389Z,20
2018-02-22T06:18:20.938Z,20
2018-02-22T06:20:40.461Z,32
2018-02-22T06:21:28.601Z,32
2018-02-22T06:22:16.373Z,36
2018-02-22T06:22:58.556Z,40
2018-02-22T06:23:39.427Z,44
2018-02-22T06:24:19.910Z,44
2018-02-22T06:25:00.473Z,48
2018-02-22T06:25:41.075Z,56
2018-02-22T06:26:21.503Z,56
2018-02-22T06:27:02.052Z,60
2018-02-22T06:27:42.803Z,68
2018-02-22T06:28:22.884Z,68
2018-02-22T06:29:03.350Z,72
2018-02-22T06:29:44.591Z,80
2018-02-22T06:30:24.792Z,88
2018-02-22T06:31:05.293Z,92
2018-02-22T06:31:45.745Z,92
2018-02-22T06:32:26.239Z,100
2018-02-22T06:33:06.775Z,104
2018-02-22T06:33:47.317Z,112
2018-02-22T06:34:27.819Z,120
2018-02-22T06:35:08.846Z,128
2018-02-22T06:35:49.326Z,132
2018-02-22T06:36:29.744Z,140
2018-02-22T06:37:10.245Z,144
2018-02-22T06:37:50.868Z,152
2018-02-22T06:38:31.363Z,160
2018-02-22T06:39:11.794Z,168
2018-02-22T06:39:52.302Z,176
2018-02-22T06:40:32.798Z,184
2018-02-22T06:41:13.417Z,196
2018-02-22T06:41:53.707Z,200
2018-02-22T06:42:34.407Z,212
2018-02-22T06:43:14.823Z,224
2018-02-22T06:43:55.544Z,236
2018-02-22T06:44:36.427Z,240
2018-02-22T06:45:16.827Z,240
2018-02-22T06:45:57.370Z,236
2018-02-22T06:46:37.809Z,240
2018-02-22T06:47:18.352Z,244
2018-02-22T06:48:00.748Z,248
2018-02-22T06:48:43.710Z,256
2018-02-22T06:49:23.889Z,264
2018-02-22T06:50:05.372Z,276
2018-02-22T06:50:46.414Z,280
2018-02-22T06:51:27.564Z,288
2018-02-22T06:52:08.940Z,300
2018-02-22T06:52:50.119Z,312
2018-02-22T06:53:32.888Z,320
2018-02-22T06:54:13.419Z,332
2018-02-22T06:54:54.647Z,348
2018-02-22T06:55:36.381Z,364
2018-02-22T06:56:19.570Z,388
2018-02-22T06:57:01.503Z,420
2018-02-22T06:57:43.487Z,460
2018-02-22T06:58:24.408Z,536
2018-02-22T06:59:05.249Z,620
2018-02-22T06:59:46.443Z,744
2018-02-22T07:00:26.940Z,876
2018-02-22T07:01:09.350Z,1048
2018-02-22T07:01:49.742Z,1188
2018-02-22T07:02:31.377Z,1340
2018-02-22T07:03:12.159Z,1476
2018-02-22T07:03:53.696Z,1556
2018-02-22T07:04:36.160Z,1600
2018-02-22T07:05:16.888Z,1612
2018-02-22T07:06:08.680Z,1588
2018-02-22T07:06:49.256Z,1580
2018-02-22T07:07:30.355Z,1540
2018-02-22T07:08:12.028Z,1540
2018-02-22T07:08:53.505Z,1492
2018-02-22T07:09:33.788Z,1488
2018-02-22T07:10:14.406Z,1564
2018-02-22T07:10:55.882Z,1572
2018-02-22T07:11:37.649Z,1632
2018-02-22T07:12:18.359Z,1732
2018-02-22T07:12:59.796Z,1812
2018-02-22T07:13:42.151Z,1812
2018-02-22T07:14:26.141Z,1876
2018-02-22T07:15:10.070Z,2060
2018-02-22T07:34:15.165Z,3652
2018-02-22T07:38:10.969Z,4288
2018-02-22T07:39:12.265Z,3548
2018-02-22T07:40:08.716Z,3396
2018-02-22T07:42:47.628Z,3352
2018-02-22T07:52:23.992Z,3704
2018-02-22T07:53:22.951Z,3692
2018-02-22T07:54:21.489Z,3780
2018-02-22T07:55:42.388Z,3808
2018-02-22T07:56:35.257Z,3888
2018-02-22T07:57:30.243Z,4000
2018-02-22T07:58:30.548Z,3924
2018-02-22T07:59:28.544Z,3828
2018-02-22T08:00:21.361Z,3824
2018-02-22T08:01:15.819Z,3628
2018-02-22T08:02:11.149Z,3444
2018-02-22T08:02:52.188Z,3356
2018-02-22T08:03:33.885Z,3324
2018-02-22T08:04:25.878Z,3000
2018-02-22T08:05:07.474Z,2904
2018-02-22T08:05:47.972Z,2776
2018-02-22T08:06:29.777Z,2716
2018-02-22T08:07:10.898Z,2696
2018-02-22T08:10:24.119Z,1884
2018-02-22T08:11:06.427Z,1824
2018-02-22T08:11:46.514Z,1780
2018-02-22T08:12:27.612Z,1776
2018-02-22T08:13:08.634Z,1752
2018-02-22T08:13:50.112Z,1748
2018-02-22T08:14:30.903Z,1744
2018-02-22T08:15:10.972Z,1748
2018-02-22T08:15:54.912Z,1736
2018-02-22T08:16:39.706Z,1736
2018-02-22T08:17:20.349Z,1728
2018-02-22T08:18:01.717Z,1724
2018-02-22T08:23:35.280Z,1720
2018-02-22T08:26:07.446Z,1724
2018-02-22T08:26:59.150Z,1720
2018-02-22T08:29:09.151Z,1720
2018-02-22T08:31:53.972Z,1740
2018-02-22T08:32:35.173Z,1740
2018-02-22T08:33:16.528Z,1744
2018-02-22T08:33:59.674Z,1744
2018-02-22T08:34:40.250Z,1748
2018-02-22T08:35:22.450Z,1748
2018-02-22T08:36:02.410Z,1748
2018-02-22T08:36:44.433Z,1744
2018-02-22T08:37:25.981Z,1744
2018-02-22T08:38:08.350Z,1740
2018-02-22T08:38:51.462Z,1740
2018-02-22T08:39:35.625Z,1740
2018-02-22T08:40:15.210Z,1744
2018-02-22T08:40:59.994Z,1740
2018-02-22T08:41:42.806Z,1736
2018-02-22T08:42:25.857Z,1736
2018-02-22T08:43:08.509Z,1732
2018-02-22T08:43:50.479Z,1736
2018-02-22T08:44:33.568Z,1728
2018-02-22T08:45:14.676Z,1720
2018-02-22T08:45:56.269Z,1728
2018-02-22T08:46:37.778Z,1720
2018-02-22T08:47:19.005Z,1720
2018-02-22T08:48:00.465Z,1716
2018-02-22T08:48:41.789Z,1708
2018-02-22T08:49:23.722Z,1716
2018-02-22T08:50:04.486Z,1708
2018-02-22T08:50:45.696Z,1708
2018-02-22T08:51:28.112Z,1704
2018-02-22T08:52:09.570Z,1700
2018-02-22T08:52:51.274Z,1696
2018-02-22T08:53:33.694Z,1692
2018-02-22T08:54:14.862Z,1684
2018-02-22T08:54:57.042Z,1688
2018-02-22T08:55:39.106Z,1688
2018-02-22T08:56:19.813Z,1692
2018-02-22T08:57:03.320Z,1684
2018-02-22T08:57:46.273Z,1676
2018-02-22T08:58:27.719Z,1684
2018-02-22T08:59:08.954Z,1692
2018-02-22T08:59:50.287Z,1688
2018-02-22T09:00:31.447Z,1676
2018-02-22T09:01:12.391Z,1676
2018-02-22T09:01:56.282Z,1684
2018-02-22T09:02:38.906Z,1684
2018-02-22T09:03:20.438Z,1676
2018-02-22T09:04:02.109Z,1688
2018-02-22T09:04:43.728Z,1672
2018-02-22T09:05:25.481Z,1684
2018-02-22T09:06:06.697Z,1684
2018-02-22T09:06:47.775Z,1692
2018-02-22T09:07:30.699Z,1676
2018-02-22T09:08:11.944Z,1676
2018-02-22T09:08:55.202Z,1692
2018-02-22T09:09:37.499Z,1692
2018-02-22T09:10:18.186Z,1696
2018-02-22T09:10:59.168Z,1680
2018-02-22T09:11:40.684Z,1688
2018-02-22T09:12:21.103Z,1680
2018-02-22T09:13:03.533Z,1676
2018-02-22T09:13:44.729Z,1664
2018-02-22T09:14:28.302Z,1664
2018-02-22T09:15:11.101Z,1668
2018-02-22T09:15:53.797Z,1664
2018-02-22T09:16:34.195Z,1660
2018-02-22T09:17:17.635Z,1656
2018-02-22T09:17:58.914Z,1656
2018-02-22T09:18:40.700Z,1656
2018-02-22T09:19:21.788Z,1656
2018-02-22T09:20:06.253Z,1648
2018-02-22T09:20:46.892Z,1636
2018-02-22T09:21:30.661Z,1640
2018-02-22T09:22:10.794Z,1636
2018-02-22T09:22:52.346Z,1636
2018-02-22T09:23:34.490Z,1640
2018-02-22T09:24:15.196Z,1628
2018-02-22T09:24:56.720Z,1632
2018-02-22T09:25:38.786Z,1628
2018-02-22T09:26:20.328Z,1620
2018-02-22T09:27:02.974Z,1620
2018-02-22T09:48:42.322Z,1564
2018-02-22T09:49:23.659Z,1544
2018-02-22T09:50:07.689Z,1548
2018-02-22T09:50:46.490Z,1548
2018-02-22T09:51:29.772Z,1544
2018-02-22T09:52:13.105Z,1544
2018-02-22T09:52:54.083Z,1540
2018-02-22T09:53:37.959Z,1540
2018-02-22T09:54:21.048Z,1520
2018-02-22T09:55:03.245Z,1528
2018-02-22T09:55:44.399Z,1536
2018-02-22T09:56:27.324Z,1528
2018-02-22T09:57:09.369Z,1524
2018-02-22T09:57:51.273Z,1516
2018-02-22T09:58:32.744Z,1532
2018-02-22T09:59:15.119Z,1520
2018-02-22T09:59:56.816Z,1520
2018-02-22T10:00:37.199Z,1520
2018-02-22T10:01:18.572Z,1524
2018-02-22T10:02:00.353Z,1516
2018-02-22T10:02:42.339Z,1520
2018-02-22T10:03:23.830Z,1516
2018-02-22T10:04:05.157Z,1516
2018-02-22T10:46:28.391Z,1464
2018-02-22T10:47:10.511Z,1456
2018-02-22T10:47:53.656Z,1452
2018-02-22T10:48:34.377Z,1464
2018-02-22T10:49:20.092Z,1460
2018-02-22T10:50:03.166Z,1452
2018-02-22T10:50:44.370Z,1456
2018-02-22T10:51:28.105Z,1476
2018-02-22T10:52:11.583Z,1516
2018-02-22T10:52:53.603Z,1472
2018-02-22T10:53:41.381Z,1456
2018-02-22T10:54:23.764Z,1460
2018-02-22T10:55:06.158Z,1468
2018-02-22T10:55:48.714Z,1468
2018-02-22T10:56:29.344Z,1476
2018-02-22T10:57:10.828Z,1472
2018-02-22T10:57:54.708Z,1476
2018-02-22T10:58:36.832Z,1436
2018-02-22T10:59:19.255Z,1424
2018-02-22T11:00:02.663Z,1420
2018-02-22T11:00:45.313Z,1400
2018-02-22T11:01:27.422Z,1404
2018-02-22T11:02:12.579Z,1420
2018-02-22T11:02:53.498Z,1404
2018-02-22T11:03:37.149Z,1408
2018-02-22T11:04:18.515Z,1404
2018-02-22T11:05:00.404Z,1384
2018-02-22T11:05:43.086Z,1388
2018-02-22T11:06:25.330Z,1396
2018-02-22T11:07:07.217Z,1392
2018-02-22T11:07:49.483Z,1384
2018-02-22T11:08:30.532Z,1384
2018-02-22T11:09:15.261Z,1400
2018-02-22T11:09:58.821Z,1396
2018-02-22T11:10:42.020Z,1348
2018-02-22T11:11:23.142Z,1340
2018-02-22T11:12:05.456Z,1340
2018-02-22T11:12:46.378Z,1360
2018-02-22T11:13:30.027Z,1304
2018-02-22T11:14:12.755Z,1364
2018-02-22T11:14:53.714Z,1352
2018-02-22T11:15:36.470Z,1324
2018-02-22T11:16:17.570Z,1156
2018-02-22T11:16:58.824Z,992
2018-02-22T11:17:39.838Z,1020
2018-02-22T11:18:22.328Z,1012
2018-02-22T11:19:03.328Z,1388
2018-02-22T11:19:47.133Z,1360
2018-02-22T11:20:28.844Z,1372
2018-02-22T11:21:12.995Z,1348
2018-02-22T11:21:58.024Z,1292
2018-02-22T11:22:40.080Z,1236
2018-02-22T11:23:25.092Z,1336
2018-02-22T11:24:07.098Z,1244
2018-02-22T11:24:50.492Z,1100
2018-02-22T11:25:33.050Z,1328
2018-02-22T11:26:14.203Z,1348
2018-02-22T11:26:54.623Z,1348
2018-02-22T11:27:38.372Z,1356
2018-02-22T11:28:19.405Z,1356
2018-02-22T11:29:01.047Z,1348
2018-02-22T11:29:42.974Z,1356
2018-02-22T11:30:24.220Z,1340
2018-02-22T11:31:05.826Z,1264
2018-02-22T11:31:47.471Z,1352
2018-02-22T11:32:29.178Z,1360
2018-02-22T11:33:12.829Z,1368
2018-02-22T11:33:53.904Z,1356
2018-02-22T11:34:35.611Z,1332
2018-02-22T11:35:18.455Z,1300
2018-02-22T11:36:02.373Z,1328
2018-02-22T11:36:41.524Z,1348
2018-02-22T11:37:27.338Z,1324
2018-02-22T11:38:12.895Z,1324
2018-02-22T11:39:04.666Z,1352
2018-02-22T11:39:47.410Z,1340
2018-02-22T11:40:29.328Z,1352
2018-02-22T11:41:10.326Z,1352
2018-02-22T11:41:51.931Z,1372
2018-02-22T11:42:37.416Z,1488
2018-02-22T11:43:19.193Z,1428
2018-02-22T11:44:01.111Z,1368
2018-02-22T11:44:42.740Z,1376
2018-02-22T11:45:24.838Z,1368
2018-02-22T11:46:06.739Z,1384
2018-02-22T11:46:47.522Z,1356
2018-02-22T11:47:27.046Z,1376
2018-02-22T11:48:10.006Z,1384
2018-02-22T11:48:50.562Z,1376
2018-02-22T11:49:31.839Z,1352
2018-02-22T11:50:14.067Z,1344
2018-02-22T11:56:29.269Z,1440
2018-02-22T11:57:32.766Z,1536
2018-02-22T11:58:31.430Z,1416
2018-02-22T11:59:30.534Z,1500
2018-02-22T12:00:29.273Z,1508
2018-02-22T12:01:23.219Z,1480
2018-02-22T12:02:11.309Z,1548
2018-02-22T12:02:52.403Z,1392
2018-02-22T12:03:33.880Z,1352
2018-02-22T12:04:17.437Z,1364
2018-02-22T12:04:58.044Z,1372
2018-02-22T12:05:37.879Z,1348
2018-02-22T12:06:20.557Z,1368
2018-02-22T12:07:01.474Z,1380
2018-02-22T12:07:45.163Z,1408
2018-02-22T12:08:24.583Z,1440
2018-02-22T12:09:07.802Z,1500
2018-02-22T12:09:49.761Z,1524
2018-02-22T12:10:31.766Z,1568
2018-02-22T12:11:13.605Z,1624
2018-02-22T12:11:53.691Z,1652
2018-02-22T12:12:35.239Z,1708
2018-02-22T12:13:16.219Z,1740
2018-02-22T12:13:57.569Z,1704
2018-02-22T12:14:38.432Z,1644
2018-02-22T12:15:21.375Z,1548
2018-02-22T12:16:10.064Z,1480
2018-02-22T12:16:51.427Z,1464
2018-02-22T12:17:33.071Z,1404
2018-02-22T12:18:20.624Z,1368
2018-02-22T12:19:03.820Z,1384
2018-02-22T12:19:44.354Z,1380
2018-02-22T12:20:26.868Z,1212
2018-02-22T12:21:07.904Z,1296
2018-02-22T12:21:53.069Z,1376
2018-02-22T12:22:34.622Z,1416
2018-02-22T12:23:17.892Z,1456
2018-02-22T12:23:59.536Z,1384
2018-02-22T12:24:49.966Z,1348
2018-02-22T12:25:31.721Z,1472
2018-02-22T12:26:15.725Z,1408
2018-02-22T12:26:56.847Z,1376
2018-02-22T12:27:39.052Z,1368
2018-02-22T12:28:20.221Z,1072
2018-02-22T12:29:00.767Z,1232
2018-02-22T12:29:41.724Z,1004
2018-02-22T12:30:23.703Z,956
2018-02-22T12:31:04.257Z,1192
2018-02-22T12:31:44.719Z,1000
2018-02-22T12:32:26.004Z,1236
2018-02-22T12:33:07.803Z,896
2018-02-22T12:33:49.243Z,1048
2018-02-22T12:34:29.826Z,1232
2018-02-22T12:35:10.734Z,1248
2018-02-22T12:35:52.122Z,1024
2018-02-22T12:36:33.789Z,1228
2018-02-22T12:37:15.720Z,1160
2018-02-22T12:37:57.234Z,964
2018-02-22T12:38:38.815Z,1108
2018-02-22T12:39:19.306Z,1032
2018-02-22T12:40:01.311Z,892
2018-02-22T12:40:42.229Z,948
2018-02-22T12:41:21.992Z,1196
2018-02-22T12:42:03.968Z,1200
2018-02-22T12:42:46.503Z,1172
2018-02-22T12:43:27.873Z,952
2018-02-22T12:44:07.908Z,1188
2018-02-22T12:44:49.316Z,1176
2018-02-22T12:51:09.410Z,1160
2018-02-22T12:53:01.700Z,1176
2018-02-22T12:53:42.222Z,1172
2018-02-22T12:54:23.340Z,1172
2018-02-22T12:55:04.173Z,1172
2018-02-22T12:55:45.652Z,1172
2018-02-22T12:56:26.287Z,1168
2018-02-22T12:57:07.103Z,1168
2018-02-22T12:57:48.246Z,1156
2018-02-22T12:58:28.950Z,1168
2018-02-22T12:59:10.747Z,1164
2018-02-22T12:59:51.460Z,1156
2018-02-22T13:00:32.935Z,1160
2018-02-22T13:01:14.768Z,1156
2018-02-22T13:01:54.812Z,1164
2018-02-22T13:02:36.259Z,1156
2018-02-22T13:03:17.274Z,1152
2018-02-22T13:03:58.342Z,1148
2018-02-22T13:04:38.833Z,1140
2018-02-22T13:05:20.230Z,1140
2018-02-22T13:06:01.832Z,1144
2018-02-22T13:06:42.650Z,1144
2018-02-22T13:07:24.264Z,1140
2018-02-22T13:08:05.218Z,1140
2018-02-22T13:08:45.756Z,1148
2018-02-22T13:09:27.829Z,1148
2018-02-22T13:10:08.220Z,1144
2018-02-22T13:10:49.152Z,1140
2018-02-22T13:11:30.652Z,1144
2018-02-22T13:12:10.760Z,1136
2018-02-22T13:12:52.201Z,1132
2018-02-22T13:13:33.360Z,1132
2018-02-22T13:14:15.128Z,1136
2018-02-22T13:14:55.675Z,1140
2018-02-22T13:15:36.182Z,1136
2018-02-22T13:16:17.772Z,1136
2018-02-22T13:16:58.553Z,1128
2018-02-22T13:17:39.868Z,1124
2018-02-22T13:18:20.641Z,1120
2018-02-22T13:19:01.647Z,1112
2018-02-22T13:19:41.694Z,1116
2018-02-22T13:20:23.311Z,1116
2018-02-22T13:21:04.902Z,1116
2018-02-22T13:21:45.264Z,1124
2018-02-22T13:22:26.157Z,1132
2018-02-22T13:23:07.214Z,1124
2018-02-22T13:23:48.423Z,1120
2018-02-22T13:24:30.220Z,1124
2018-02-22T13:25:11.430Z,1112
2018-02-22T13:25:51.807Z,1112
2018-02-22T13:26:32.655Z,1116
2018-02-22T13:27:13.825Z,1124
2018-02-22T13:27:54.085Z,1124
2018-02-22T13:28:35.727Z,1116
2018-02-22T13:29:17.160Z,1108
2018-02-22T13:29:58.688Z,1108
2018-02-22T13:30:40.199Z,1100
2018-02-22T13:31:21.983Z,1104
2018-02-22T13:32:03.214Z,1104
2018-02-22T13:32:44.209Z,1108
2018-02-22T13:33:25.597Z,1112
2018-02-22T13:34:07.359Z,1124
2018-02-22T13:34:48.284Z,1120
2018-02-22T13:35:29.161Z,1124
2018-02-22T13:36:11.686Z,1128
2018-02-22T13:36:51.836Z,1100
2018-02-22T13:37:34.239Z,1092
2018-02-22T13:38:15.918Z,1108
2018-02-22T13:38:58.884Z,1092
2018-02-22T13:39:40.647Z,1084
2018-02-22T13:40:21.678Z,1080
2018-02-22T13:41:03.769Z,1080
2018-02-22T13:41:45.892Z,1080
2018-02-22T13:42:28.297Z,1076
2018-02-22T13:43:09.274Z,1072
2018-02-22T13:43:50.175Z,1076
2018-02-22T13:44:31.366Z,1076
2018-02-22T13:45:13.288Z,1080
2018-02-22T13:45:54.125Z,1076
2018-02-22T13:46:35.296Z,1076
2018-02-22T13:47:16.813Z,1068
2018-02-22T13:48:01.833Z,1060
2018-02-22T13:48:42.173Z,1052
2018-02-22T13:49:23.357Z,1048
2018-02-22T13:50:04.379Z,1044
2018-02-22T13:50:46.255Z,1044
2018-02-22T13:51:27.761Z,1044
2018-02-22T13:52:08.843Z,1044
2018-02-22T13:52:50.173Z,1044
2018-02-22T13:53:31.181Z,1036
2018-02-22T13:54:12.695Z,1036
2018-02-22T13:54:54.155Z,1048
2018-02-22T13:55:36.276Z,1036
2018-02-22T13:56:17.336Z,1032
2018-02-22T13:56:56.880Z,1032
2018-02-22T13:57:40.635Z,1028
2018-02-22T14:12:51.319Z,972
2018-02-22T14:13:35.292Z,968
2018-02-22T14:14:14.534Z,968
2018-02-22T14:14:57.996Z,972
2018-02-22T14:15:38.852Z,968
2018-02-22T14:16:20.248Z,964
2018-02-22T14:17:02.183Z,960
2018-02-22T14:17:43.144Z,956
2018-02-22T14:18:24.678Z,952
2018-02-22T14:19:05.858Z,952
2018-02-22T14:19:47.262Z,948
2018-02-22T14:20:29.085Z,948
2018-02-22T14:21:10.117Z,952
2018-02-22T14:21:50.868Z,952
2018-02-22T14:22:32.375Z,944
2018-02-22T14:23:13.372Z,944
2018-02-22T14:23:54.123Z,940
2018-02-22T14:24:34.613Z,936
2018-02-22T14:25:16.194Z,932
2018-02-22T14:25:57.095Z,932
2018-02-22T14:26:38.084Z,924
2018-02-22T14:27:19.764Z,924
2018-02-22T14:28:00.227Z,924
2018-02-22T14:28:41.886Z,924
2018-02-22T14:29:24.731Z,920
2018-02-22T14:30:07.328Z,920
2018-02-22T14:30:48.207Z,920
2018-02-22T14:31:28.796Z,916
2018-02-22T14:32:10.662Z,920
2018-02-22T14:32:51.157Z,920
2018-02-22T14:33:32.592Z,920
2018-02-22T14:34:13.936Z,916
2018-02-22T14:34:54.801Z,912
2018-02-22T14:35:34.780Z,908
2018-02-22T14:36:16.426Z,912
2018-02-22T14:36:58.163Z,912
2018-02-22T14:37:39.101Z,912
2018-02-22T14:38:19.265Z,908
2018-02-22T14:39:00.931Z,916
2018-02-22T14:39:42.312Z,916
2018-02-22T14:40:22.811Z,920
2018-02-22T14:41:04.106Z,916
2018-02-22T14:41:44.829Z,912
2018-02-22T14:42:26.754Z,916
2018-02-22T14:43:08.153Z,920
2018-02-22T14:43:49.590Z,916
2018-02-22T14:44:30.253Z,912
2018-02-22T14:45:10.956Z,916
2018-02-22T14:45:53.248Z,916
2018-02-22T14:46:36.245Z,912
2018-02-22T14:47:17.211Z,912
2018-02-22T14:47:58.243Z,908
2018-02-22T14:48:39.289Z,908
2018-02-22T14:49:20.172Z,908
2018-02-22T14:50:01.300Z,900
2018-02-22T14:50:42.926Z,908
2018-02-22T14:51:24.597Z,904
2018-02-22T14:52:04.255Z,900
2018-02-22T14:52:45.834Z,892
2018-02-22T14:53:27.850Z,892
2018-02-22T14:54:08.602Z,896
2018-02-22T14:54:49.085Z,892
2018-02-22T14:55:30.148Z,892
2018-02-22T14:56:11.182Z,892
2018-02-22T14:56:51.469Z,892
2018-02-22T14:57:33.127Z,888
2018-02-22T14:58:14.780Z,884
2018-02-22T14:58:56.098Z,888
2018-02-22T14:59:36.937Z,888
2018-02-22T15:00:17.675Z,888
2018-02-22T15:00:58.446Z,884
2018-02-22T15:01:39.601Z,880
2018-02-22T15:02:19.622Z,880
2018-02-22T15:03:01.838Z,880
2018-02-22T15:03:41.667Z,880
2018-02-22T15:04:24.124Z,876
2018-02-22T15:05:04.605Z,876
2018-02-22T15:05:45.726Z,876
2018-02-22T15:06:27.208Z,876
2018-02-22T15:07:08.604Z,872
2018-02-22T15:07:49.686Z,872
2018-02-22T15:08:30.269Z,876
2018-02-22T15:09:11.643Z,868
2018-02-22T15:09:52.598Z,868
2018-02-22T15:10:34.524Z,864
2018-02-22T15:11:15.293Z,864
2018-02-22T15:11:56.172Z,868
2018-02-22T15:12:36.603Z,864
2018-02-22T15:13:18.156Z,860
2018-02-22T15:13:59.190Z,864
2018-02-22T15:14:39.172Z,868
2018-02-22T15:15:20.932Z,892
2018-02-22T15:16:01.599Z,968
2018-02-22T15:16:42.612Z,1044
2018-02-22T15:17:23.357Z,1072
2018-02-22T15:18:04.118Z,1056
2018-02-22T15:18:46.211Z,1032
2018-02-22T15:19:27.300Z,1260
2018-02-22T15:20:07.662Z,1628
2018-02-22T15:20:48.741Z,1940
2018-02-22T15:21:29.452Z,1928
2018-02-22T15:22:12.198Z,1888
2018-02-22T15:22:52.677Z,1800
2018-02-22T15:23:35.149Z,1724
2018-02-22T15:24:14.090Z,1708
2018-02-22T15:24:55.706Z,1688
2018-02-22T15:25:37.189Z,1664
2018-02-22T15:26:21.723Z,1676
2018-02-22T15:27:02.686Z,1684
2018-02-22T15:27:43.381Z,1740
2018-02-22T15:28:26.208Z,1748
2018-02-22T15:29:06.372Z,1756
2018-02-22T15:29:48.255Z,1716
2018-02-22T15:30:29.663Z,1700
2018-02-22T15:31:10.358Z,1760
2018-02-22T15:31:51.271Z,1836
2018-02-22T15:32:31.425Z,1888
2018-02-22T15:33:13.665Z,1940
2018-02-22T15:33:54.785Z,1916
2018-02-22T15:34:36.226Z,1940
2018-02-22T15:35:22.681Z,1936
2018-02-22T15:36:00.767Z,1908
2018-02-22T15:36:42.943Z,1972
2018-02-22T15:37:23.694Z,2036
2018-02-22T15:38:05.605Z,2164
2018-02-22T15:38:46.813Z,2280
2018-02-22T15:39:28.196Z,2328
2018-02-22T15:40:08.863Z,2128
2018-02-22T15:40:52.148Z,1820
2018-02-22T15:41:33.731Z,1612
2018-02-22T15:42:14.360Z,1572
2018-02-22T15:42:56.191Z,1560
2018-02-22T15:43:39.147Z,1540
2018-02-22T15:44:20.631Z,1508
2018-02-22T15:45:00.334Z,1444
2018-02-22T15:45:42.783Z,1360
2018-02-22T15:46:24.618Z,1276
2018-02-22T15:47:05.699Z,1200
2018-02-22T15:47:46.787Z,1128
2018-02-22T15:48:27.114Z,1084
2018-02-22T15:49:08.318Z,1068
2018-02-22T15:49:50.332Z,1024
2018-02-22T15:50:31.197Z,988
2018-02-22T15:51:12.696Z,936
2018-02-22T15:51:55.985Z,904
2018-02-22T15:52:37.603Z,872
2018-02-22T15:53:18.688Z,840
2018-02-22T15:54:00.134Z,812
2018-02-22T15:54:40.888Z,780
2018-02-22T15:55:22.708Z,760
2018-02-22T15:56:03.299Z,740
2018-02-22T15:56:44.834Z,724
2018-02-22T15:57:25.111Z,700
2018-02-22T15:58:07.106Z,676
2018-02-22T15:58:48.201Z,652
2018-02-22T15:59:30.274Z,628
2018-02-22T16:00:10.306Z,608
2018-02-22T16:00:52.687Z,592
2018-02-22T16:01:33.527Z,580
2018-02-22T16:02:16.565Z,568
2018-02-22T16:02:57.707Z,556
2018-02-22T16:03:38.603Z,548
2018-02-22T16:04:19.472Z,540
2018-02-22T16:05:00.701Z,532
2018-02-22T16:05:42.226Z,524
2018-02-22T16:06:23.144Z,520
2018-02-22T16:49:21.609Z,128
2018-02-22T16:50:00.167Z,124
2018-02-22T16:50:42.031Z,116
2018-02-22T16:51:23.120Z,112
2018-02-22T16:52:04.540Z,108
2018-02-22T16:52:45.658Z,104
2018-02-22T16:53:27.534Z,96
2018-02-22T16:54:07.870Z,92
2018-02-22T16:54:49.341Z,92
2018-02-22T16:55:30.528Z,84
2018-02-22T16:56:10.662Z,80
2018-02-22T16:56:51.173Z,76
2018-02-22T16:57:31.756Z,72
2018-02-22T16:58:12.192Z,68
2018-02-22T16:58:52.804Z,60
2018-02-22T16:59:33.478Z,60
2018-02-22T17:00:13.902Z,56
2018-02-22T17:00:54.284Z,52
2018-02-22T17:01:35.142Z,48
2018-02-22T17:02:15.866Z,48
2018-02-22T17:02:56.273Z,40
2018-02-22T17:03:37.578Z,40
2018-02-22T17:04:17.624Z,36
2018-02-22T17:04:58.411Z,36
2018-02-22T17:05:39.034Z,32
2018-02-22T17:06:19.488Z,28
2018-02-22T17:07:00.531Z,28
2018-02-22T17:07:41.626Z,24
2018-02-22T17:08:21.463Z,20
2018-02-22T17:09:02.034Z,20
2018-02-22T17:09:42.388Z,20
2018-02-22T17:10:22.760Z,16
2018-02-22T17:11:03.193Z,16
2018-02-22T17:11:43.730Z,12
2018-02-22T17:12:24.159Z,12
2018-02-22T17:13:04.658Z,12
2018-02-22T17:13:45.068Z,12
2018-02-22T17:14:25.643Z,8
2018-02-22T17:15:06.053Z,4
2018-02-22T17:15:46.426Z,8
2018-02-22T17:16:26.836Z,8
2018-02-22T17:17:07.865Z,4
2018-02-22T17:17:48.512Z,4
2018-02-22T17:18:28.986Z,8
2018-02-22T17:19:09.439Z,4
2018-02-22T17:19:49.818Z,0
2018-02-22T17:20:30.279Z,4
2018-02-22T17:21:10.953Z,4
2018-02-22T17:21:51.344Z,0
2018-02-22T17:22:31.756Z,4
2018-02-22T17:23:12.506Z,4
2018-02-22T17:23:53.182Z,0
2018-02-22T17:24:33.622Z,0
2018-02-22T17:25:14.171Z,4
2018-02-22T17:25:54.545Z,4
2018-02-22T17:26:36.283Z,0
2018-02-22T17:27:16.366Z,0
2018-02-22T17:27:56.777Z,0
2018-02-22T17:28:37.431Z,0
2018-02-22T17:29:17.860Z,0
2018-02-22T17:29:58.706Z,0
2018-02-22T17:30:39.044Z,0
2018-02-22T17:31:20.042Z,0
2018-02-22T17:32:00.634Z,0
2018-02-22T17:32:41.340Z,0
2018-02-22T17:33:22.030Z,0
2018-02-22T17:34:02.381Z,0
2018-02-22T17:34:42.728Z,0
2018-02-22T17:35:23.175Z,0
2018-02-22T17:36:03.629Z,0
2018-02-22T17:36:44.345Z,0
2018-02-22T17:37:24.928Z,0
2018-02-22T17:38:05.584Z,0
2018-02-22T17:38:46.461Z,0
2018-02-22T17:39:28.805Z,0
2018-02-22T17:40:09.037Z,0
2018-02-22T17:40:49.515Z,0
2018-02-22T17:41:29.868Z,0
2018-02-22T17:42:10.284Z,0
2018-02-22T17:42:50.759Z,0
2018-02-22T17:43:31.207Z,0
2018-02-22T17:44:11.589Z,0
2018-02-22T17:44:52.301Z,0
2018-02-22T17:45:33.128Z,0
2018-02-22T17:46:15.020Z,0
2018-02-22T17:46:54.664Z,0
2018-02-22T17:47:35.031Z,0
2018-02-22T17:48:16.877Z,0
2018-02-22T17:48:57.420Z,0
2018-02-22T17:49:38.509Z,0
2018-02-22T17:50:19.523Z,0
2018-02-22T17:51:00.012Z,0
2018-02-22T17:51:40.993Z,0
2018-02-22T17:52:21.812Z,0
2018-02-22T17:53:02.399Z,0
2018-02-22T17:53:42.812Z,0
2018-02-22T17:54:23.256Z,0